Time;durP1;ratioP1;P1;durP2;ratioP2;P2;SDS_P1;SDS_P2;PMS_P1;PMS_P2;Temp;Humidity;BMP_temperature;BMP_pressure;BME280_temperature;BME280_humidity;BME280_pressure;Samples;Min_cycle;Max_cycle;Signal;HPM_P1;HPM_P2
2022/12/16 00:01:54;;;;;;;9.23;7.63;;;0.20;81.70;;;;;;5065702;28;20305;-49
2022/12/16 00:04:23;;;;;;;11.77;7.82;;;0.20;81.70;;;;;;5063258;28;20241;-51
2022/12/16 00:06:52;;;;;;;10.98;7.45;;;0.20;81.70;;;;;;5064363;28;20624;-51
2022/12/16 00:09:22;;;;;;;13.90;7.28;;;0.20;81.70;;;;;;5063339;28;20241;-50
2022/12/16 00:11:53;;;;;;;13.23;7.95;;;0.20;81.70;;;;;;5065744;28;20227;-49
2022/12/16 00:14:23;;;;;;;10.73;7.28;;;0.20;81.70;;;;;;5070065;28;20227;-48
2022/12/16 00:16:52;;;;;;;12.90;7.82;;;0.20;81.70;;;;;;5064468;28;20234;-47
2022/12/16 00:19:20;;;;;;;11.57;7.43;;;0.20;81.70;;;;;;5078747;28;20605;-50
2022/12/16 00:21:48;;;;;;;9.38;7.30;;;0.20;81.60;;;;;;5064529;28;20279;-49
2022/12/16 00:24:19;;;;;;;11.27;8.10;;;0.20;81.60;;;;;;5070640;28;20230;-49
2022/12/16 00:26:47;;;;;;;12.77;7.40;;;0.10;81.60;;;;;;5066441;28;20206;-49
2022/12/16 00:29:16;;;;;;;13.35;7.15;;;0.10;81.50;;;;;;5073649;28;20191;-50
2022/12/16 00:31:46;;;;;;;14.23;8.82;;;0.10;81.60;;;;;;5068152;28;20607;-50
2022/12/16 00:34:16;;;;;;;11.13;6.60;;;0.10;81.40;;;;;;5062770;28;20231;-50
2022/12/16 00:36:44;;;;;;;12.27;7.90;;;0.10;81.50;;;;;;5063930;28;20558;-50
2022/12/16 00:39:13;;;;;;;13.25;8.85;;;0.10;81.60;;;;;;5063613;28;20450;-49
2022/12/16 00:41:41;;;;;;;12.15;8.35;;;0.20;81.60;;;;;;5067650;28;20733;-49
2022/12/16 00:44:10;;;;;;;11.13;7.05;;;0.10;81.60;;;;;;5064296;28;20269;-47
2022/12/16 00:46:38;;;;;;;11.32;7.88;;;0.10;81.50;;;;;;5064401;28;20694;-48
2022/12/16 00:49:08;;;;;;;11.13;8.15;;;0.10;81.50;;;;;;5067783;28;20733;-51
2022/12/16 00:51:37;;;;;;;11.68;7.88;;;0.10;81.50;;;;;;5070915;28;20246;-51
2022/12/16 00:54:05;;;;;;;12.18;7.28;;;0.10;81.50;;;;;;5070893;28;20289;-51
2022/12/16 00:56:35;;;;;;;11.82;7.25;;;0.10;81.50;;;;;;5065175;28;20200;-50
2022/12/16 00:59:04;;;;;;;12.68;8.38;;;0.10;81.50;;;;;;5064740;28;20199;-50
2022/12/16 01:01:33;;;;;;;9.02;6.15;;;0.10;81.50;;;;;;5073158;28;20195;-49
2022/12/16 01:04:01;;;;;;;12.98;7.03;;;0.10;81.60;;;;;;5059594;28;20220;-50
2022/12/16 01:06:31;;;;;;;12.10;7.45;;;0.10;81.50;;;;;;5063889;28;20265;-50
2022/12/16 01:09:00;;;;;;;10.05;7.38;;;0.10;81.50;;;;;;5062559;28;20227;-51
2022/12/16 01:11:28;;;;;;;11.05;6.65;;;0.10;81.50;;;;;;5064083;28;20230;-50
2022/12/16 01:13:58;;;;;;;9.32;7.47;;;0.10;81.50;;;;;;5069897;28;20180;-51
2022/12/16 01:16:26;;;;;;;10.68;7.10;;;0.10;81.50;;;;;;5073664;28;20735;-48
2022/12/16 01:18:55;;;;;;;11.20;7.28;;;0.10;81.50;;;;;;5068945;28;20194;-49
2022/12/16 01:21:23;;;;;;;10.57;6.53;;;0.10;81.40;;;;;;5065253;28;20196;-50
2022/12/16 01:23:53;;;;;;;11.07;6.85;;;0.10;81.40;;;;;;5063241;28;20265;-48
2022/12/16 01:26:22;;;;;;;10.57;7.03;;;0.10;81.50;;;;;;5064141;28;20717;-50
2022/12/16 01:28:51;;;;;;;11.15;9.10;;;0.10;81.50;;;;;;5064378;28;20243;-52
2022/12/16 01:31:22;;;;;;;9.70;7.20;;;0.10;81.40;;;;;;5104787;27;20196;-49
2022/12/16 01:33:50;;;;;;;11.15;7.45;;;0.10;81.50;;;;;;5066756;28;20326;-50
2022/12/16 01:36:19;;;;;;;11.05;7.18;;;0.10;81.40;;;;;;5067940;28;20230;-48
2022/12/16 01:38:48;;;;;;;11.90;7.28;;;0.10;81.50;;;;;;5066971;28;20207;-51
2022/12/16 01:41:18;;;;;;;9.70;6.35;;;0.00;81.30;;;;;;5072167;28;20656;-49
2022/12/16 01:43:46;;;;;;;9.95;6.70;;;0.10;81.50;;;;;;5088397;28;20560;-50
2022/12/16 01:46:20;;;;;;;12.25;7.00;;;0.10;81.40;;;;;;5071557;28;20550;-50
2022/12/16 01:48:55;;;;;;;9.52;7.00;;;0.10;81.50;;;;;;5065655;28;20718;-49
2022/12/16 01:51:28;;;;;;;8.82;6.78;;;0.00;81.40;;;;;;5069466;28;20192;-51
2022/12/16 01:54:00;;;;;;;11.00;6.80;;;0.10;81.50;;;;;;5066128;28;20678;-50
2022/12/16 01:56:33;;;;;;;9.73;5.90;;;0.10;81.40;;;;;;5066627;28;20192;-50
2022/12/16 01:59:03;;;;;;;10.52;6.32;;;0.00;81.30;;;;;;5067205;28;20593;-50
2022/12/16 02:01:31;;;;;;;12.27;7.63;;;0.00;81.30;;;;;;5076572;28;20648;-50
2022/12/16 02:04:03;;;;;;;11.63;6.63;;;0.00;81.30;;;;;;5066062;28;20198;-49
2022/12/16 02:06:32;;;;;;;9.93;7.00;;;0.00;81.30;;;;;;5082618;28;20192;-49
2022/12/16 02:09:05;;;;;;;11.48;7.57;;;0.00;81.20;;;;;;5071938;28;20975;-50
2022/12/16 02:12:05;;;;;;;6.38;5.55;;;0.00;81.20;;;;;;5077473;28;20308;-51
2022/12/16 02:15:12;;;;;;;11.82;6.82;;;0.10;81.20;;;;;;5063944;28;20224;-50
2022/12/16 02:17:49;;;;;;;7.93;6.65;;;0.00;81.20;;;;;;5065326;28;20192;-50
2022/12/16 02:20:51;;;;;;;10.30;6.75;;;0.00;81.20;;;;;;5073948;28;20233;-49
2022/12/16 02:23:52;;;;;;;10.00;6.72;;;0.00;81.20;;;;;;5064688;28;20203;-51
2022/12/16 02:26:44;;;;;;;7.38;5.72;;;0.00;81.30;;;;;;5061902;28;20225;-49
2022/12/16 02:29:37;;;;;;;9.20;6.18;;;0.00;81.20;;;;;;5063484;28;20216;-48
2022/12/16 02:32:12;;;;;;;9.07;6.07;;;0.00;81.20;;;;;;5060664;28;20200;-50
2022/12/16 02:34:51;;;;;;;9.23;6.32;;;0.00;81.10;;;;;;5065662;28;20230;-49
2022/12/16 02:37:37;;;;;;;7.00;6.00;;;0.00;81.10;;;;;;5065173;28;20191;-49
2022/12/16 02:40:15;;;;;;;11.20;7.68;;;0.00;81.10;;;;;;5066711;28;20220;-49
2022/12/16 02:42:48;;;;;;;10.27;6.25;;;0.00;81.10;;;;;;5071150;28;20192;-51
2022/12/16 02:45:18;;;;;;;9.25;6.03;;;0.00;81.10;;;;;;5065579;28;20223;-50
2022/12/16 02:47:48;;;;;;;11.15;5.80;;;0.00;81.10;;;;;;5064591;28;20718;-50
2022/12/16 02:50:21;;;;;;;11.13;6.97;;;0.00;81.00;;;;;;5065209;28;20239;-51
2022/12/16 02:52:50;;;;;;;7.85;5.85;;;0.00;81.10;;;;;;5074554;28;20275;-49
2022/12/16 02:55:20;;;;;;;9.52;5.68;;;0.00;81.20;;;;;;5063189;28;20231;-51
2022/12/16 02:58:04;;;;;;;11.75;6.53;;;0.00;81.10;;;;;;5074142;28;20195;-48
2022/12/16 03:00:40;;;;;;;8.68;6.10;;;0.00;81.20;;;;;;5067555;28;20255;-49
2022/12/16 03:03:16;;;;;;;8.10;5.88;;;-0.10;81.10;;;;;;5066813;28;20675;-50
2022/12/16 03:05:48;;;;;;;13.23;6.65;;;0.00;81.20;;;;;;5065090;28;20724;-49
2022/12/16 03:08:22;;;;;;;10.02;6.22;;;-0.10;81.00;;;;;;5062775;28;20583;-49
2022/12/16 03:10:54;;;;;;;10.07;5.57;;;-0.10;81.00;;;;;;5059959;28;20222;-50
2022/12/16 03:13:23;;;;;;;8.60;5.72;;;0.00;81.10;;;;;;5068618;28;20199;-51
2022/12/16 03:15:56;;;;;;;7.93;4.75;;;-0.10;81.00;;;;;;5065081;28;20220;-48
2022/12/16 03:18:27;;;;;;;7.97;5.50;;;-0.10;81.00;;;;;;5050994;28;20212;-49
2022/12/16 03:21:00;;;;;;;11.18;6.32;;;-0.10;81.00;;;;;;5065511;28;20721;-49
2022/12/16 03:23:32;;;;;;;8.35;6.65;;;-0.10;81.00;;;;;;5063510;28;20652;-50
2022/12/16 03:26:07;;;;;;;7.63;5.28;;;-0.10;81.00;;;;;;5070708;28;20218;-49
2022/12/16 03:28:46;;;;;;;9.40;5.97;;;-0.10;81.00;;;;;;5074665;28;20222;-49
2022/12/16 03:31:22;;;;;;;8.93;6.60;;;-0.10;81.00;;;;;;5067939;28;20682;-49
2022/12/16 03:33:58;;;;;;;10.55;6.85;;;-0.10;81.10;;;;;;5086297;28;20694;-49
2022/12/16 03:36:29;;;;;;;9.15;6.05;;;-0.10;81.00;;;;;;5079743;28;20290;-51
2022/12/16 03:39:00;;;;;;;8.95;6.15;;;-0.10;81.00;;;;;;5062026;28;20425;-51
2022/12/16 03:41:30;;;;;;;5.85;4.68;;;-0.10;81.00;;;;;;5065205;28;20196;-49
2022/12/16 03:43:59;;;;;;;11.48;5.45;;;-0.10;81.00;;;;;;5070055;28;20192;-51
2022/12/16 03:46:28;;;;;;;7.22;5.55;;;-0.10;81.00;;;;;;5064820;28;20199;-51
2022/12/16 03:48:58;;;;;;;7.30;6.40;;;-0.10;81.00;;;;;;5063749;28;20257;-49
2022/12/16 03:51:26;;;;;;;7.90;5.05;;;-0.10;81.00;;;;;;5065328;28;20656;-49
2022/12/16 03:53:55;;;;;;;8.88;5.97;;;-0.10;80.90;;;;;;5063190;28;20195;-49
2022/12/16 03:56:23;;;;;;;9.02;5.63;;;-0.10;81.00;;;;;;5064790;28;20196;-51
2022/12/16 03:58:52;;;;;;;6.75;4.95;;;-0.10;81.00;;;;;;5064917;28;20226;-49
2022/12/16 04:01:21;;;;;;;5.75;5.13;;;-0.10;81.00;;;;;;5071420;28;20230;-49
2022/12/16 04:03:50;;;;;;;8.35;5.40;;;-0.10;81.00;;;;;;5075759;28;20192;-48
2022/12/16 04:06:20;;;;;;;8.98;5.43;;;-0.10;81.00;;;;;;5064874;28;20192;-52
2022/12/16 04:08:49;;;;;;;6.75;5.05;;;-0.10;81.00;;;;;;5062778;28;20246;-49
2022/12/16 04:25:17;;;;;;;6.78;4.82;;;-0.10;81.00;;;;;;5071030;28;20223;-48
2022/12/16 04:27:46;;;;;;;8.30;5.35;;;-0.20;80.90;;;;;;5064601;28;20200;-51
2022/12/16 04:30:19;;;;;;;6.55;5.25;;;-0.20;80.80;;;;;;5063480;28;20215;-51
